This is the latest recevied weather packets stored in our database for station/object W5COG. If no packets are shown the sender has not sent any weather packets the latest 1 day(s).
| Time | Temp. | Humidity | Pressure | Rain* | Wind** | Luminosity | Snow |
|---|---|---|---|---|---|---|---|
| 1777992928 | 17.22° C | 81% | 1004 hPa | 0 mm | 2.24 m/s, 48° | 30 W/m² | - |
| 1777992627 | 17.78° C | 82% | 1003.8 hPa | 0 mm | 2.24 m/s, 42° | 51 W/m² | - |
| 1777992327 | 17.78° C | 83% | 1003.8 hPa | 0 mm | 1.79 m/s, 38° | 49 W/m² | - |
| 1777992027 | 17.78° C | 83% | 1003.8 hPa | 0 mm | 1.79 m/s, 49° | 41 W/m² | - |
| 1777990528 | 18.33° C | 80% | 1003.3 hPa | 0 mm | 1.34 m/s, 42° | 37 W/m² | - |
| 1777990228 | 18.33° C | 80% | 1003.2 hPa | 0 mm | 1.34 m/s, 31° | 32 W/m² | - |
| 1777989928 | 18.33° C | 80% | 1003.2 hPa | 0 mm | 1.79 m/s, 46° | 30 W/m² | - |
| 1777989628 | 18.33° C | 80% | 1003.2 hPa | 0 mm | 1.79 m/s, 53° | 29 W/m² | - |
| 1777989329 | 18.33° C | 80% | 1003.1 hPa | 0 mm | 1.79 m/s, 66° | 32 W/m² | - |
| 1777989028 | 18.89° C | 80% | 1002.9 hPa | 0 mm | 1.34 m/s, 64° | 39 W/m² | - |
| 1777988728 | 18.89° C | 80% | 1002.9 hPa | 0 mm | 1.79 m/s, 52° | 47 W/m² | - |
| 1777987832 | 18.89° C | 81% | 1002.6 hPa | 0 mm | 1.79 m/s, 68° | 100 W/m² | - |
| 1777987528 | 18.89° C | 80% | 1002.7 hPa | 0 mm | 2.24 m/s, 71° | 73 W/m² | - |
| 1777987227 | 18.89° C | 80% | 1002.7 hPa | 0 mm | 1.79 m/s, 79° | 80 W/m² | - |
| 1777986927 | 18.89° C | 80% | 1002.7 hPa | 0 mm | 1.79 m/s, 65° | 79 W/m² | - |
| 1777986628 | 18.89° C | 80% | 1002.7 hPa | 0 mm | 1.79 m/s, 85° | 72 W/m² | - |
| 1777986328 | 18.33° C | 80% | 1002.6 hPa | 0 mm | 2.68 m/s, 86° | 82 W/m² | - |
| 1777986028 | 18.33° C | 80% | 1002.6 hPa | 0 mm | 2.24 m/s, 82° | 76 W/m² | - |
| 1777985728 | 18.33° C | 80% | 1002.6 hPa | 0 mm | 2.68 m/s, 85° | 80 W/m² | - |
| 1777985428 | 18.33° C | 80% | 1002.3 hPa | 0 mm | 2.68 m/s, 90° | 80 W/m² | - |
| 1777985128 | 18.33° C | 80% | 1002.3 hPa | 0 mm | 2.68 m/s, 104° | 72 W/m² | - |
| 1777984827 | 18.33° C | 80% | 1002.4 hPa | 0 mm | 2.68 m/s, 98° | 54 W/m² | - |
| 1777984527 | 18.33° C | 80% | 1002.5 hPa | 0 mm | 3.13 m/s, 85° | 37 W/m² | - |
| 1777984227 | 18.33° C | 80% | 1002.6 hPa | 0 mm | 2.24 m/s, 96° | 24 W/m² | - |
| 1777983927 | 18.33° C | 80% | 1002.5 hPa | 0 mm | 3.13 m/s, 99° | 23 W/m² | - |
* Rain latest hour (hover to see other rain measurements)
** Current wind speed in m/s (hover to see current wind gust speed)